Terminal Aerodrome Forecast
Issued by NWS

Home | Current Version | Previous Version | Text Only | Print | Product List | Glossary On
Versions: 1 2 3 4 5 6 7 8 9 10 11 12 13 14 15 16 17 18 19 20 21 22 23 24 25 26 27 28 29 30 31 32 33 34
000
FTUS44 KFWD 281506 AAA
TAFDAL
TAF AMD
KDAL 281506Z 2815/2912 19009KT P6SM VCSH BKN020
     FM281700 18012KT P6SM SCT020 BKN080
     FM290500 18011KT P6SM VCTS BKN040CB
     FM291000 19010KT P6SM BKN050=

USA.gov is the U.S. government's official web portal to all federal, state and local government web resources and services.